Latest Weather Observations for Bellambi

IDN60901

Issued at 4:21 pm EST Wednesday 5 August 2015 (issued every 10 minutes, with the page automatically refreshed every 10 minutes)

About weather observations | Map of Sydney area stations | Latest observations for Sydney area | Other Formats
Station Details ID: 068228 Name: BELLAMBI AWS Lat: -34.37 Lon: 150.93 Height: 10.0 m
Data from the previous 72 hours. | See also: Recent months at Bellambi
Date/Time
EST
Tmp

°C
App
Tmp
°C
Dew
Point
°C
Rel
Hum
%
Delta-T

°C
Wind Press
QNH
hPa
Press
MSL
hPa
Rain
since
9 am
mm
Dir
 
Spd
km/h
Gust
km/h
Spd
kts
Gust
kts
05/04:04pm 14.4 7.3 1.3 41 5.7 W 28 48 15 26 - - 0.0
05/04:00pm 14.6 8.0 2.2 43 5.5 W 26 48 14 26 - - 0.0
05/03:30pm 13.8 9.6 1.5 43 5.3 SW 13 30 7 16 - - 0.0
05/03:15pm 14.2 8.6 1.5 42 5.5 WNW 20 54 11 29 - - 0.0
05/03:00pm 14.2 9.3 2.1 44 5.3 W 17 35 9 19 - - 0.0
05/02:30pm 13.1 9.0 2.1 47 4.8 S 13 30 7 16 - - 0.0
05/02:01pm 13.1 6.1 2.1 47 4.8 WNW 28 50 15 27 - - 0.0
05/02:00pm 13.1 6.5 2.1 47 4.8 WNW 26 46 14 25 - - 0.0
05/01:50pm 13.1 6.5 2.1 47 4.8 WNW 26 57 14 31 - - 0.0
05/01:30pm 13.0 8.5 2.0 47 4.8 WNW 15 32 8 17 - - 0.0
05/01:00pm 12.8 8.6 1.8 47 4.7 SE 13 26 7 14 - - 0.0
05/12:30pm 12.8 7.3 2.1 48 4.6 W 20 43 11 23 - - 0.0
05/12:00pm 12.8 8.0 2.6 50 4.5 W 17 33 9 18 - - 0.0
05/11:30am 12.7 7.2 2.0 48 4.6 W 20 33 11 18 - - 0.0
05/11:00am 12.5 8.9 2.9 52 4.2 E 11 19 6 10 - - 0.0
05/10:30am 11.6 6.6 1.5 50 4.3 WSW 17 37 9 20 - - 0.0
05/10:00am 11.2 6.2 1.2 50 4.2 WSW 17 39 9 21 - - 0.0
05/09:30am 11.3 5.9 1.3 50 4.2 WSW 19 28 10 15 - - 0.0
05/09:00am 10.4 3.9 0.2 49 4.1 W 24 41 13 22 - - 0.0
05/08:42am 10.5 3.2 0.0 48 4.2 W 28 54 15 29 - - 0.0
05/08:41am 10.5 3.6 0.0 48 4.2 W 26 48 14 26 - - 0.0
05/08:30am 10.4 5.2 -0.1 48 4.2 W 17 28 9 15 - - 0.0
05/08:00am 9.9 5.5 0.3 51 3.9 ESE 13 20 7 11 - - 0.0
05/07:30am 8.6 2.6 -1.2 50 3.8 SW 20 39 11 21 - - 0.0
05/07:00am 8.0 2.2 -1.8 50 3.7 SW 19 28 10 15 - - 0.0
05/06:30am 8.0 0.4 -2.0 49 3.7 W 28 39 15 21 - - 0.0
05/06:00am 7.8 3.4 -2.2 49 3.7 WSW 11 20 6 11 - - 0.0
05/05:30am 7.8 3.4 -2.2 49 3.7 SW 11 20 6 11 - - 0.0
05/05:00am 7.6 2.4 -2.4 49 3.7 SW 15 26 8 14 - - 0.0
05/04:30am 7.3 1.4 -2.4 50 3.6 SW 19 33 10 18 - - 0.0
05/04:00am 7.5 1.0 -2.2 50 3.6 WSW 22 35 12 19 - - 0.0
05/03:30am 7.3 0.4 -2.4 50 3.6 WSW 24 39 13 21 - - 0.0
05/03:00am 7.2 0.7 -2.5 50 3.6 SW 22 33 12 18 - - 0.0
05/02:30am 7.0 0.9 -2.7 50 3.5 WSW 20 32 11 17 - - 0.0
05/02:00am 7.1 0.5 -2.9 49 3.6 W 22 35 12 19 - - 0.0
05/01:30am 7.0 2.2 -2.7 50 3.5 WSW 13 28 7 15 - - 0.0
05/01:00am 6.8 2.0 -2.4 52 3.4 SW 13 24 7 13 - - 0.0
05/12:30am 7.3 1.8 -2.2 51 3.5 WSW 17 32 9 17 - - 0.0
05/12:00am 7.2 2.4 -2.2 51 3.5 WSW 13 22 7 12 - - 0.0
 
Date/Time
EST
Tmp

°C
App
Tmp
°C
Dew
Point
°C
Rel
Hum
%
Delta-T

°C
Wind Press
QNH
hPa
Press
MSL
hPa
Rain
since
9 am
mm
Dir
 
Spd
km/h
Gust
km/h
Spd
kts
Gust
kts
04/11:30pm 7.4 1.9 -2.3 50 3.6 WSW 17 35 9 19 - - 0.0
04/11:00pm 7.5 1.6 -2.5 49 3.7 WSW 19 32 10 17 - - 0.0
04/10:30pm 7.7 2.1 -2.6 48 3.8 W 17 33 9 18 - - 0.0
04/10:00pm 8.2 1.7 -2.7 46 4.0 W 22 39 12 21 - - 0.0
04/09:30pm 8.2 3.5 -2.1 48 3.9 SW 13 24 7 13 - - 0.0
04/09:00pm 8.1 2.0 -2.2 48 3.8 WSW 20 30 11 16 - - 0.0
04/08:30pm 8.7 1.9 -2.0 47 4.0 W 24 37 13 20 - - 0.0
04/08:00pm 9.0 2.6 -1.7 47 4.1 W 22 32 12 17 - - 0.0
04/07:30pm 9.7 3.9 -1.3 46 4.3 WNW 19 26 10 14 - - 0.0
04/07:00pm 10.4 5.0 -1.3 44 4.6 W 17 26 9 14 - - 0.0
04/06:30pm 10.7 6.1 1.5 53 3.9 WSW 15 20 8 11 - - 0.0
04/06:00pm 10.0 6.9 3.7 65 2.8 W 9 13 5 7 - - 0.0
04/05:30pm 10.2 7.1 3.5 63 2.9 W 9 13 5 7 - - 0.0
04/05:00pm 11.9 8.3 5.1 63 3.1 N 13 20 7 11 - - 0.0
04/04:30pm 11.9 7.0 4.2 59 3.5 NE 19 24 10 13 - - 0.0
04/04:00pm 12.2 7.6 3.9 57 3.7 NE 17 22 9 12 - - 0.0
04/03:30pm 12.1 8.5 3.1 54 4.0 NE 11 19 6 10 - - 0.0
04/03:00pm 11.3 7.1 1.8 52 4.0 ENE 13 20 7 11 - - 0.0
04/02:30pm 12.4 8.3 2.3 50 4.4 ENE 13 17 7 9 - - 0.0
04/02:00pm 12.2 8.4 1.5 48 4.5 ENE 11 15 6 8 - - 0.0
04/01:30pm 12.2 8.4 1.5 48 4.5 ENE 11 15 6 8 - - 0.0
04/01:00pm 12.3 8.4 1.0 46 4.8 E 11 17 6 9 - - 0.0
04/12:30pm 12.2 8.8 1.8 49 4.4 E 9 13 5 7 - - 0.0
04/12:00pm 11.7 7.7 0.2 45 4.7 ESE 11 15 6 8 - - 0.0
04/11:30am 11.7 7.0 0.8 47 4.5 SSE 15 19 8 10 - - 0.0
04/11:00am 11.3 6.4 -0.5 44 4.7 SSE 15 20 8 11 - - 0.0
04/10:30am 11.1 5.9 0.2 47 4.4 S 17 20 9 11 - - 0.0
04/10:00am 10.7 5.9 0.2 48 4.3 SSW 15 19 8 10 - - 0.0
04/09:30am 10.4 6.1 0.7 51 4.0 SSW 13 19 7 10 - - 0.0
04/09:00am 9.6 5.9 -0.3 50 3.9 WSW 9 13 5 7 - - 0.0
04/08:30am 9.2 6.0 0.9 56 3.4 W 7 11 4 6 - - 0.0
04/08:00am 8.6 5.6 0.6 57 3.2 W 6 9 3 5 - - 0.0
04/07:30am 8.1 4.4 0.1 57 3.2 W 9 11 5 6 - - 0.0
04/07:00am 8.1 4.0 -0.1 56 3.2 WSW 11 13 6 7 - - 0.0
04/06:30am 8.6 4.9 -0.2 54 3.5 WSW 9 11 5 6 - - 0.0
04/06:00am 8.9 3.7 -0.1 53 3.6 SW 17 22 9 12 - - 0.0
04/05:30am 8.8 4.3 0.0 54 3.5 WSW 13 20 7 11 - - 0.0
04/05:00am 8.3 4.3 0.3 57 3.2 WSW 11 15 6 8 - - 0.0
04/04:30am 8.5 4.1 0.5 57 3.2 WSW 13 15 7 8 - - 0.0
04/04:00am 8.5 4.6 1.2 60 3.0 W 11 17 6 9 - - 0.0
04/03:30am 8.1 3.8 1.3 62 2.8 W 13 19 7 10 - - 0.0
04/03:00am 7.2 3.2 0.6 63 2.6 W 11 15 6 8 - - 0.0
04/02:30am 7.5 3.6 0.9 63 2.6 WSW 11 15 6 8 - - 0.0
04/02:00am 7.8 3.9 1.0 62 2.7 W 11 15 6 8 - - 0.0
04/01:30am 8.2 3.5 1.1 61 2.9 WSW 15 20 8 11 - - 0.0
04/01:00am 8.4 3.4 1.3 61 2.9 WSW 17 22 9 12 - - 0.0
04/12:30am 8.7 3.8 1.8 62 2.9 WSW 17 22 9 12 - - 0.0
04/12:00am 8.6 4.5 2.2 64 2.7 W 13 19 7 10 - - 0.0
 
Date/Time
EST
Tmp

°C
App
Tmp
°C
Dew
Point
°C
Rel
Hum
%
Delta-T

°C
Wind Press
QNH
hPa
Press
MSL
hPa
Rain
since
9 am
mm
Dir
 
Spd
km/h
Gust
km/h
Spd
kts
Gust
kts
03/11:30pm 8.3 4.2 2.3 66 2.5 W 13 17 7 9 - - 0.0
03/11:00pm 8.5 5.1 3.8 72 2.0 W 11 13 6 7 - - 0.0
03/10:30pm 8.4 5.1 4.8 78 1.6 W 11 13 6 7 - - 0.0
03/10:00pm 8.9 5.7 5.3 78 1.6 W 11 13 6 7 - - 0.0
03/09:30pm 9.4 6.7 5.4 76 1.8 WSW 9 11 5 6 - - 0.0
03/09:00pm 10.2 7.5 5.8 74 2.0 W 9 13 5 7 - - 0.0
03/08:30pm 11.7 5.5 7.8 77 1.9 S 30 35 16 19 - - 0.0
03/08:00pm 11.6 7.2 6.5 71 2.4 SW 19 30 10 16 - - 0.0
03/07:30pm 11.5 6.8 3.3 57 3.6 SW 17 22 9 12 - - 0.0
03/07:00pm 11.9 5.9 3.2 55 3.8 SW 24 32 13 17 - - 0.0
03/06:30pm 12.5 6.5 3.2 53 4.1 WNW 24 39 13 21 - - 0.0
03/06:00pm 12.5 7.8 2.9 52 4.2 WSW 17 30 9 16 - - 0.0
03/05:30pm 13.0 7.2 2.5 49 4.6 WSW 22 41 12 22 - - 0.0
03/05:00pm 13.5 7.3 2.1 46 5.0 WSW 24 37 13 20 - - 0.0
03/04:30pm 14.4 7.0 2.0 43 5.4 W 30 46 16 25 - - 0.0
03/04:07pm 14.7 7.6 1.3 40 5.8 WSW 28 48 15 26 - - 0.0
03/04:00pm 14.9 8.6 1.8 41 5.7 WSW 24 33 13 18 - - 0.0
03/03:30pm 15.5 9.3 2.0 40 6.0 W 24 43 13 23 - - 0.0
03/03:03pm 15.7 8.7 1.8 39 6.1 W 28 46 15 25 - - 0.0
03/03:00pm 15.9 9.2 1.6 38 6.3 W 26 41 14 22 - - 0.0
03/02:34pm 16.0 9.0 2.1 39 6.2 W 28 46 15 25 - - 0.0
03/02:30pm 15.9 8.1 2.0 39 6.2 W 32 46 17 25 - - 0.0
03/02:24pm 16.0 9.0 1.7 38 6.3 W 28 46 15 25 - - 0.0
03/02:00pm 16.3 10.2 2.7 40 6.2 W 24 41 13 22 - - 0.0
03/01:30pm 16.2 9.2 2.2 39 6.3 W 28 46 15 25 - - 0.0
03/01:11pm 16.0 9.0 2.1 39 6.2 W 28 48 15 26 - - 0.0
03/01:00pm 16.1 9.9 2.2 39 6.2 WSW 24 39 13 21 - - 0.0
03/12:30pm 15.7 7.9 1.8 39 6.1 W 32 54 17 29 - - 0.0
03/12:21pm 15.8 8.4 1.9 39 6.2 W 30 48 16 26 - - 0.0
03/12:14pm 15.6 8.6 1.7 39 6.1 W 28 44 15 24 - - 0.0
03/12:00pm 15.7 10.3 2.2 40 6.0 W 20 35 11 19 - - 0.0
03/11:42am 15.7 9.2 2.5 41 5.9 WNW 26 48 14 26 - - 0.0
03/11:30am 15.7 9.5 2.2 40 6.0 WNW 24 46 13 25 - - 0.0
03/11:00am 15.5 9.8 2.7 42 5.8 W 22 33 12 18 - - 0.0
03/10:30am 15.0 9.4 1.5 40 5.9 WNW 20 32 11 17 - - 0.0
03/10:00am 14.6 8.3 1.5 41 5.7 W 24 32 13 17 - - 0.0
03/09:30am 14.2 9.4 2.5 45 5.2 WNW 17 33 9 18 - - 0.0
03/09:00am 13.5 8.2 2.1 46 5.0 W 19 30 10 16 - - 0.0
03/08:30am 12.8 8.3 2.1 48 4.6 W 15 26 8 14 - - 0.0
03/08:00am 11.9 8.5 1.8 50 4.3 WSW 9 19 5 10 - - 0.0
03/07:30am 11.5 7.7 1.5 50 4.2 WNW 11 22 6 12 - - 0.0
03/07:00am 10.8 6.9 1.4 52 3.9 WSW 11 20 6 11 - - 0.0
03/06:30am 10.7 7.2 1.3 52 3.9 W 9 20 5 11 - - 0.0
03/06:00am 10.1 6.5 0.7 52 3.8 SW 9 19 5 10 - - 0.0
03/05:30am 10.6 6.6 0.6 50 4.1 WSW 11 19 6 10 - - 0.0
03/05:00am 10.4 6.8 0.4 50 4.1 WSW 9 19 5 10 - - 0.0
03/04:30am 10.4 6.4 0.2 49 4.1 WSW 11 20 6 11 - - 0.0
03/04:00am 10.1 6.1 0.2 50 4.0 SW 11 19 6 10 - - 0.0
03/03:30am 10.1 6.0 -0.1 49 4.1 SW 11 24 6 13 - - 0.0
03/03:00am 10.1 5.3 0.2 50 4.0 SW 15 26 8 14 - - 0.0
03/02:30am 10.0 4.8 0.1 50 4.0 SW 17 26 9 14 - - 0.0
03/02:00am 10.2 5.0 0.3 50 4.0 SW 17 30 9 16 - - 0.0
03/01:30am 10.4 4.8 0.2 49 4.1 SW 19 28 10 15 - - 0.0
03/01:00am 11.1 5.6 0.5 48 4.4 SSW 19 28 10 15 - - 0.0
03/12:30am 11.1 5.2 1.9 53 3.9 SSW 22 30 12 16 - - 0.0
03/12:00am 11.1 7.1 0.5 48 4.4 SW 11 20 6 11 - - 0.0
 
Date/Time
EST
Tmp

°C
App
Tmp
°C
Dew
Point
°C
Rel
Hum
%
Delta-T

°C
Wind Press
QNH
hPa
Press
MSL
hPa
Rain
since
9 am
mm
Dir
 
Spd
km/h
Gust
km/h
Spd
kts
Gust
kts
02/11:30pm 12.3 8.0 1.0 46 4.8 SW 13 19 7 10 - - 0.0
02/11:00pm 13.4 10.4 4.0 53 4.3 WSW 9 13 5 7 - - 0.0
02/10:30pm 14.2 9.4 4.8 53 4.4 W 19 37 10 20 - - 0.0
02/10:00pm 14.9 12.2 5.7 54 4.4 SE 9 17 5 9 - - 0.0
02/09:30pm 15.5 11.4 6.2 54 4.5 W 17 43 9 23 - - 0.0
02/09:00pm 16.1 9.3 7.1 55 4.5 W 32 54 17 29 - - 0.0
02/08:30pm 16.5 5.8 8.0 57 4.3 WNW 54 78 29 42 - - 0.0
02/08:00pm 16.8 6.2 8.5 58 4.2 NW 54 76 29 41 - - 0.0
02/07:35pm 17.5 8.0 8.4 55 4.7 WNW 48 72 26 39 - - 0.0
02/07:30pm 17.6 8.4 8.2 54 4.8 WNW 46 63 25 34 - - 0.0
02/07:23pm 17.9 9.1 8.2 53 5.0 WNW 44 63 24 34 - - 0.0
02/07:00pm 18.7 9.7 7.2 47 5.8 NW 44 61 24 33 - - 0.0
02/06:30pm 19.6 10.1 6.7 43 6.5 NW 46 69 25 37 - - 0.0
02/06:09pm 19.7 12.7 6.1 41 6.8 NW 32 50 17 27 - - 0.0
02/06:00pm 19.8 13.9 5.8 40 6.9 WNW 26 35 14 19 - - 0.0
02/05:30pm 20.5 15.3 5.7 38 7.3 WNW 22 35 12 19 - - 0.0
02/05:00pm 21.1 16.0 5.9 37 7.6 WNW 22 30 12 16 - - 0.0
02/04:30pm 22.2 16.6 5.2 33 8.4 WNW 24 37 13 20 - - 0.0

Latest Capital City Observations: Canberra | Sydney | Melbourne | Brisbane | Adelaide | Perth | Hobart | Darwin

Other Formats:

Comma delimited format used in spreadsheet applications
http://www.bom.gov.au/fwo/IDN60901/IDN60901.94749.axf

JavaScript Object Notation format (JSON) in row-major order
http://www.bom.gov.au/fwo/IDN60901/IDN60901.94749.json